Time;durP1;ratioP1;P1;durP2;ratioP2;P2;SDS_P1;SDS_P2;PMS_P1;PMS_P2;Temp;Humidity;BMP_temperature;BMP_pressure;BME280_temperature;BME280_humidity;BME280_pressure;Samples;Min_cycle;Max_cycle;Signal;HPM_P1;HPM_P2
2023/02/12 00:01:10;;;;;;;34.00;19.40;;;;;;;3.95;44.34;101180.34;108130;1288;22021;-61
2023/02/12 00:03:36;;;;;;;29.70;17.30;;;;;;;3.92;44.39;101166.20;108155;1288;21994;-61
2023/02/12 00:06:02;;;;;;;34.50;18.20;;;;;;;3.86;44.42;101175.58;108086;1288;22025;-62
2023/02/12 00:08:29;;;;;;;32.90;18.70;;;;;;;3.79;44.39;101173.12;108090;1288;21990;-61
2023/02/12 00:10:56;;;;;;;36.10;20.70;;;;;;;3.73;44.51;101172.27;108084;1288;21990;-62
2023/02/12 00:13:22;;;;;;;36.30;20.40;;;;;;;3.68;44.42;101167.79;108115;1288;21992;-61
2023/02/12 00:15:48;;;;;;;32.60;18.10;;;;;;;3.59;44.37;101168.37;108015;1289;22058;-61
2023/02/12 00:18:14;;;;;;;34.50;19.30;;;;;;;3.51;44.44;101166.27;108006;1289;21996;-61
2023/02/12 00:20:41;;;;;;;34.10;19.50;;;;;;;3.39;44.41;101172.14;107951;1289;21990;-66
2023/02/12 00:23:06;;;;;;;40.90;21.30;;;;;;;3.32;44.37;101170.19;107276;1288;1003148;-61
2023/02/12 00:25:32;;;;;;;44.90;21.80;;;;;;;3.27;44.49;101163.81;108107;1288;22457;-62
2023/02/12 00:27:58;;;;;;;34.30;19.80;;;;;;;3.24;44.62;101164.94;108152;1284;21997;-61
2023/02/12 00:30:24;;;;;;;37.50;21.10;;;;;;;3.20;44.76;101166.89;108088;1288;21999;-65
2023/02/12 00:32:49;;;;;;;40.90;21.90;;;;;;;3.11;44.76;101176.01;108123;1288;22004;-66
2023/02/12 00:35:15;;;;;;;36.00;20.50;;;;;;;3.11;44.64;101172.17;107953;1289;21992;-62
2023/02/12 00:37:42;;;;;;;39.40;21.30;;;;;;;3.11;44.55;101168.89;107977;1280;21980;-61
2023/02/12 00:40:08;;;;;;;38.40;20.80;;;;;;;3.06;44.58;101167.34;107989;1289;22013;-66
2023/02/12 00:42:34;;;;;;;37.70;20.70;;;;;;;3.02;44.52;101165.14;107358;1289;1002895;-65
2023/02/12 00:45:00;;;;;;;35.00;19.20;;;;;;;2.99;44.60;101160.70;107279;1289;1002258;-63
2023/02/12 00:47:25;;;;;;;41.50;23.50;;;;;;;2.95;44.75;101158.34;107242;1289;1002129;-66
2023/02/12 00:49:52;;;;;;;35.20;20.00;;;;;;;2.93;44.71;101154.46;107979;1289;21998;-66
2023/02/12 00:52:17;;;;;;;44.30;22.40;;;;;;;2.96;44.61;101153.66;107965;1288;21983;-61
2023/02/12 00:54:43;;;;;;;38.80;21.20;;;;;;;2.90;44.73;101159.73;108177;1288;22013;-61
2023/02/12 00:57:09;;;;;;;35.80;19.20;;;;;;;2.86;44.61;101161.52;108141;1288;21991;-66
2023/02/12 00:59:54;;;;;;;40.10;22.20;;;;;;;2.75;44.81;101159.59;107959;1288;21986;-66
2023/02/12 01:02:21;;;;;;;34.00;19.20;;;;;;;2.72;44.78;101158.80;108024;1287;21988;-64
2023/02/12 01:04:47;;;;;;;36.90;19.90;;;;;;;2.74;44.88;101152.96;107945;1289;21996;-66
2023/02/12 01:07:13;;;;;;;35.80;19.50;;;;;;;2.75;44.95;101147.13;107236;1283;1002436;-61
2023/02/12 01:09:41;;;;;;;35.40;21.10;;;;;;;2.79;44.87;101143.79;107995;1288;24338;-62
2023/02/12 01:12:06;;;;;;;33.40;18.60;;;;;;;2.82;44.93;101144.23;108025;1288;21996;-66
2023/02/12 01:14:33;;;;;;;35.70;19.90;;;;;;;2.85;45.04;101142.40;108052;1288;21990;-64
2023/02/12 01:16:59;;;;;;;40.30;22.00;;;;;;;2.87;45.03;101141.95;108007;1284;21992;-61
2023/02/12 01:19:24;;;;;;;42.50;22.20;;;;;;;2.91;45.12;101141.55;108029;1287;22026;-66
2023/02/12 01:21:50;;;;;;;41.00;23.20;;;;;;;2.94;45.29;101137.66;107269;1287;1002406;-61
2023/02/12 01:24:16;;;;;;;42.60;23.50;;;;;;;2.96;45.29;101138.95;108038;1284;21989;-61
2023/02/12 01:26:42;;;;;;;42.90;23.50;;;;;;;3.04;45.34;101138.30;108000;1288;21988;-61
2023/02/12 01:29:07;;;;;;;39.70;22.90;;;;;;;3.09;45.42;101138.83;107266;1288;1002318;-61
2023/02/12 01:31:37;;;;;;;40.10;22.90;;;;;;;3.14;45.33;101136.52;107236;1288;1003126;-61
2023/02/12 01:34:03;;;;;;;40.30;22.20;;;;;;;3.21;45.51;101133.45;108038;1288;21990;-66
2023/02/12 01:36:31;;;;;;;38.90;21.60;;;;;;;3.27;45.51;101131.73;107991;1277;22846;-66
2023/02/12 01:38:58;;;;;;;43.20;23.10;;;;;;;3.31;45.68;101131.64;107999;1288;22155;-65
2023/02/12 01:41:26;;;;;;;43.60;23.50;;;;;;;3.36;46.07;101133.21;108184;1288;22084;-66
2023/02/12 01:44:15;;;;;;;41.60;23.50;;;;;;;3.38;46.57;101132.88;107938;1288;21989;-61
2023/02/12 01:46:42;;;;;;;51.50;27.60;;;;;;;3.43;46.76;101135.81;107996;1288;21987;-62
2023/02/12 01:49:33;;;;;;;45.20;25.50;;;;;;;3.46;47.10;101134.02;108020;1288;21998;-61
2023/02/12 01:52:15;;;;;;;46.40;27.30;;;;;;;3.43;47.83;101134.10;107826;1289;22028;-66
2023/02/12 01:54:41;;;;;;;42.50;25.50;;;;;;;3.45;48.10;101132.75;108026;1289;22011;-65
2023/02/12 01:57:07;;;;;;;45.60;27.10;;;;;;;3.47;48.45;101133.69;107959;1289;22026;-61
2023/02/12 01:59:33;;;;;;;41.20;24.80;;;;;;;3.49;48.58;101133.07;108000;1289;21990;-62
2023/02/12 02:01:58;;;;;;;47.70;27.70;;;;;;;3.54;48.73;101139.63;107919;1289;21987;-61
2023/02/12 02:04:28;;;;;;;49.70;26.80;;;;;;;3.53;49.21;101138.20;107964;1289;23484;-66
2023/02/12 02:07:00;;;;;;;49.70;27.50;;;;;;;3.48;49.56;101128.52;107281;1288;1002399;-66
2023/02/12 02:09:26;;;;;;;43.70;25.40;;;;;;;3.47;49.36;101126.23;108047;1288;24410;-60
2023/02/12 02:14:37;;;;;;;48.40;27.50;;;;;;;3.41;49.92;101117.56;107360;1287;1002523;-65
2023/02/12 02:17:34;;;;;;;45.40;27.60;;;;;;;3.36;50.81;101114.46;108007;1288;21998;-66
2023/02/12 02:20:06;;;;;;;47.70;26.70;;;;;;;3.30;50.85;101110.80;108104;1288;22003;-60
2023/02/12 02:22:54;;;;;;;53.10;28.60;;;;;;;3.26;50.98;101112.62;107311;1288;1002739;-63
2023/02/12 02:25:23;;;;;;;47.90;26.70;;;;;;;3.24;51.22;101115.17;108061;1288;22006;-66
2023/02/12 02:28:10;;;;;;;45.30;26.80;;;;;;;3.22;51.62;101115.09;108111;1288;22096;-65
2023/02/12 02:30:49;;;;;;;45.30;26.40;;;;;;;3.21;51.50;101114.91;108080;1288;22025;-60
2023/02/12 02:33:22;;;;;;;50.80;28.00;;;;;;;3.19;51.56;101116.59;108078;1288;22024;-66
2023/02/12 02:36:01;;;;;;;48.30;28.20;;;;;;;3.17;51.78;101118.24;108044;1288;23725;-60
2023/02/12 02:38:39;;;;;;;50.20;28.30;;;;;;;3.10;52.37;101115.08;108087;1288;21999;-60
2023/02/12 02:41:08;;;;;;;49.60;27.50;;;;;;;3.04;52.57;101113.52;107178;1288;1002695;-60
2023/02/12 02:43:37;;;;;;;47.50;27.20;;;;;;;3.04;52.70;101112.46;108087;1288;21998;-66
2023/02/12 02:46:09;;;;;;;43.20;25.10;;;;;;;3.05;52.41;101111.98;108090;1288;22032;-61
2023/02/12 02:48:37;;;;;;;47.40;25.40;;;;;;;3.07;52.45;101113.10;107917;1288;21999;-65
2023/02/12 02:51:07;;;;;;;47.50;27.70;;;;;;;3.10;52.63;101114.04;108109;1288;21989;-65
2023/02/12 02:53:38;;;;;;;46.20;26.80;;;;;;;3.15;52.93;101107.77;108054;1288;23129;-60
2023/02/12 02:56:06;;;;;;;45.90;25.50;;;;;;;3.21;52.71;101109.69;108089;1288;21989;-60
2023/02/12 02:58:39;;;;;;;41.50;24.10;;;;;;;3.28;53.01;101109.20;108094;1288;21993;-61
2023/02/12 03:01:08;;;;;;;46.60;26.60;;;;;;;3.37;53.00;101109.64;108070;1288;21959;-65
2023/02/12 03:03:51;;;;;;;45.00;26.40;;;;;;;3.47;53.18;101113.39;107896;1288;22001;-61
2023/02/12 03:06:43;;;;;;;46.40;25.50;;;;;;;3.56;53.09;101112.59;107330;1288;1002553;-66
2023/02/12 03:09:18;;;;;;;48.70;28.00;;;;;;;3.65;53.00;101116.33;107319;1288;1003004;-61
2023/02/12 03:11:44;;;;;;;53.80;29.30;;;;;;;3.71;52.75;101121.52;108071;1288;21985;-66
2023/02/12 03:14:12;;;;;;;53.50;29.50;;;;;;;3.76;52.60;101123.20;108067;1289;21998;-61
2023/02/12 03:16:46;;;;;;;;;;;;;;;3.76;53.01;101119.73;107364;1289;1003012;-61
2023/02/12 03:19:24;;;;;;;47.80;25.70;;;;;;;3.75;53.01;101116.57;108117;1289;22106;-61
2023/02/12 03:22:32;;;;;;;46.10;27.40;;;;;;;3.75;53.20;101114.17;107798;1288;295687;-61
2023/02/12 03:25:43;;;;;;;48.50;27.60;;;;;;;3.73;53.51;101111.00;106587;1297;1003220;-67
2023/02/12 03:28:13;;;;;;;46.50;27.30;;;;;;;3.72;53.76;101108.19;107375;1296;22002;-66
2023/02/12 03:30:47;;;;;;;45.90;27.90;;;;;;;3.71;53.98;101104.33;108014;1289;22010;-66
2023/02/12 03:33:25;;;;;;;49.00;28.30;;;;;;;3.70;54.40;101102.92;108080;1288;22024;-66
2023/02/12 03:36:21;;;;;;;46.80;26.90;;;;;;;3.72;54.82;101103.68;108125;1288;22574;-61
2023/02/12 03:38:48;;;;;;;45.90;27.50;;;;;;;3.74;55.21;101103.55;108005;1288;21992;-66
2023/02/12 03:41:25;;;;;;;46.70;26.70;;;;;;;3.70;56.05;101098.95;108169;1288;21994;-66
2023/02/12 03:43:58;;;;;;;47.80;28.50;;;;;;;3.77;55.07;101095.64;108125;1288;21994;-61
2023/02/12 03:46:27;;;;;;;47.30;27.40;;;;;;;3.82;55.44;101095.42;108102;1289;22035;-63
2023/02/12 03:49:20;;;;;;;49.60;27.70;;;;;;;3.88;55.45;101094.72;108143;1289;24447;-61
2023/02/12 03:51:46;;;;;;;45.70;28.30;;;;;;;3.92;55.55;101093.42;108064;1288;21995;-66
2023/02/12 03:54:13;;;;;;;47.10;27.40;;;;;;;3.92;55.50;101092.58;107951;1288;21998;-62
2023/02/12 03:56:51;;;;;;;50.10;29.20;;;;;;;3.92;55.92;101096.02;107263;1288;1002323;-61
2023/02/12 03:59:18;;;;;;;45.90;28.50;;;;;;;3.94;55.77;101100.79;108093;1287;23131;-61
2023/02/12 04:01:44;;;;;;;44.90;27.40;;;;;;;3.99;55.68;101100.39;107408;1288;1006310;-62
2023/02/12 04:04:10;;;;;;;46.60;27.70;;;;;;;4.07;55.28;101095.04;108114;1288;21986;-67
2023/02/12 04:06:38;;;;;;;48.60;27.60;;;;;;;4.12;55.45;101093.10;107915;1288;21989;-66
2023/02/12 04:09:05;;;;;;;48.50;29.80;;;;;;;4.15;55.61;101094.20;107991;1286;21991;-61
2023/02/12 04:11:58;;;;;;;50.80;28.60;;;;;;;4.17;55.99;101095.46;107875;1288;21988;-61
2023/02/12 04:14:51;;;;;;;49.60;29.60;;;;;;;4.20;56.23;101095.35;108065;1287;21991;-61
2023/02/12 04:17:25;;;;;;;40.20;23.80;;;;;;;4.22;56.57;101094.88;108039;1288;23845;-61
2023/02/12 04:20:15;;;;;;;44.20;25.60;;;;;;;4.23;56.44;101096.11;108052;1288;21988;-67
2023/02/12 04:22:55;;;;;;;44.60;26.40;;;;;;;4.23;56.63;101097.16;108034;1288;22006;-61
2023/02/12 04:25:36;;;;;;;43.40;25.40;;;;;;;4.21;56.84;101099.38;108108;1288;22025;-61
2023/02/12 04:28:11;;;;;;;42.50;25.80;;;;;;;4.16;56.81;101099.27;108067;1288;22042;-61
2023/02/12 04:30:44;;;;;;;48.70;27.30;;;;;;;4.15;56.88;101103.23;108025;1288;22102;-63
2023/02/12 04:33:10;;;;;;;42.40;24.70;;;;;;;4.18;56.69;101109.02;108052;1288;21992;-62
2023/02/12 04:35:48;;;;;;;41.90;23.60;;;;;;;4.19;56.72;101115.48;108029;1288;21996;-66
2023/02/12 04:38:40;;;;;;;43.20;26.30;;;;;;;4.22;56.46;101119.20;108105;1288;22028;-67
2023/02/12 04:41:07;;;;;;;48.60;26.70;;;;;;;4.23;56.72;101119.05;107267;1286;1003183;-67
2023/02/12 04:43:35;;;;;;;42.50;24.80;;;;;;;4.20;57.08;101122.63;107869;1288;21990;-66
2023/02/12 04:46:02;;;;;;;45.40;26.30;;;;;;;4.20;56.84;101118.29;107361;1288;1002447;-67
2023/02/12 04:48:28;;;;;;;45.00;25.80;;;;;;;4.17;57.26;101118.57;108079;1288;23725;-62
2023/02/12 04:50:54;;;;;;;49.00;27.50;;;;;;;4.20;56.90;101115.86;108000;1288;22001;-61
2023/02/12 04:53:20;;;;;;;47.60;28.50;;;;;;;4.22;56.96;101112.61;108068;1288;21999;-62
2023/02/12 04:55:46;;;;;;;45.90;26.70;;;;;;;4.19;57.39;101115.48;108066;1288;21989;-61
2023/02/12 04:58:13;;;;;;;48.70;29.00;;;;;;;4.20;57.10;101113.08;107337;1289;1002633;-61
2023/02/12 05:00:38;;;;;;;44.30;26.40;;;;;;;4.19;57.55;101115.31;107254;1288;1003048;-67
2023/02/12 05:03:04;;;;;;;46.80;26.50;;;;;;;4.20;57.95;101117.60;108015;1283;21991;-62
2023/02/12 05:05:30;;;;;;;46.40;26.80;;;;;;;4.29;57.34;101115.40;108033;1288;22110;-61
2023/02/12 05:07:56;;;;;;;43.20;24.70;;;;;;;4.33;57.86;101121.39;108013;1288;22050;-61
2023/02/12 05:10:25;;;;;;;45.60;26.20;;;;;;;4.40;57.49;101123.47;107988;1288;22000;-61
2023/02/12 05:12:54;;;;;;;46.20;26.30;;;;;;;4.45;57.72;101127.41;108120;1288;22123;-66
2023/02/12 05:15:20;;;;;;;40.00;24.80;;;;;;;4.55;57.23;101130.47;108011;1287;21989;-66
2023/02/12 05:17:46;;;;;;;40.90;25.10;;;;;;;4.67;56.94;101133.00;108003;1288;22030;-67
2023/02/12 05:20:12;;;;;;;37.70;23.90;;;;;;;4.75;56.84;101136.84;108044;1283;21989;-61
2023/02/12 05:22:38;;;;;;;45.30;26.00;;;;;;;4.83;56.91;101137.71;108046;1288;23189;-60
2023/02/12 05:25:04;;;;;;;45.70;25.90;;;;;;;4.87;56.96;101135.91;108188;1288;22039;-67
2023/02/12 05:27:31;;;;;;;36.30;21.60;;;;;;;4.96;56.57;101140.11;108209;1288;22029;-65
2023/02/12 05:29:58;;;;;;;43.30;25.70;;;;;;;5.02;56.29;101143.73;108150;1288;21992;-67
2023/02/12 05:32:24;;;;;;;44.90;26.80;;;;;;;5.04;56.26;101143.95;108087;1288;21997;-66
2023/02/12 05:34:51;;;;;;;42.10;25.00;;;;;;;5.04;56.43;101147.61;108120;1288;23087;-62
2023/02/12 05:37:17;;;;;;;43.40;25.80;;;;;;;5.01;56.51;101152.77;108132;1288;21994;-65
2023/02/12 05:39:42;;;;;;;44.30;25.30;;;;;;;5.03;56.09;101156.45;108156;1288;21995;-66
2023/02/12 05:42:08;;;;;;;40.90;24.20;;;;;;;4.99;56.54;101160.71;107397;1288;1006711;-62
2023/02/12 05:44:34;;;;;;;47.70;26.10;;;;;;;4.98;56.57;101165.73;107370;1288;1002989;-67
2023/02/12 05:47:00;;;;;;;41.00;24.30;;;;;;;5.02;56.15;101169.83;108140;1281;21993;-66
2023/02/12 05:49:25;;;;;;;40.10;24.30;;;;;;;5.07;56.06;101177.77;108127;1288;21992;-66
2023/02/12 05:51:51;;;;;;;41.10;23.80;;;;;;;5.15;55.97;101179.66;108120;1286;22083;-63
2023/02/12 05:54:17;;;;;;;44.90;26.90;;;;;;;5.22;56.47;101187.67;107148;1288;1002807;-64
2023/02/12 05:56:44;;;;;;;42.60;23.90;;;;;;;5.27;56.66;101191.61;107297;1288;1003023;-62
2023/02/12 05:59:14;;;;;;;40.70;23.90;;;;;;;5.32;56.83;101187.38;107993;1288;22222;-66
2023/02/12 06:01:40;;;;;;;36.90;23.10;;;;;;;5.38;57.20;101183.48;108022;1288;22065;-62
2023/02/12 06:04:09;;;;;;;39.00;22.10;;;;;;;5.45;57.47;101185.40;108025;1288;22023;-66
2023/02/12 06:06:36;;;;;;;42.10;22.50;;;;;;;5.54;57.88;101189.05;108075;1278;22029;-67
2023/02/12 06:09:02;;;;;;;37.70;22.70;;;;;;;5.65;58.27;101190.86;107993;1288;21992;-66
2023/02/12 06:11:28;;;;;;;34.20;21.70;;;;;;;5.77;58.07;101192.34;107993;1289;22028;-66
2023/02/12 06:13:54;;;;;;;35.90;21.70;;;;;;;5.90;57.98;101192.23;108077;1288;22007;-62
2023/02/12 06:16:22;;;;;;;34.50;19.70;;;;;;;6.00;58.41;101189.33;108067;1288;22000;-67
2023/02/12 06:18:48;;;;;;;31.50;18.90;;;;;;;6.13;58.79;101192.20;107996;1289;23771;-62
2023/02/12 06:21:14;;;;;;;32.60;20.10;;;;;;;6.23;60.00;101196.02;108003;1281;22070;-61
2023/02/12 06:23:40;;;;;;;27.90;17.50;;;;;;;6.37;59.42;101194.55;107955;1284;21991;-61
2023/02/12 06:26:09;;;;;;;29.70;19.20;;;;;;;6.47;59.77;101190.89;107267;1289;1002743;-70
2023/02/12 06:28:37;;;;;;;29.90;19.70;;;;;;;6.58;60.15;101190.56;108024;1277;22002;-61
2023/02/12 06:31:02;;;;;;;34.90;18.90;;;;;;;6.64;61.00;101191.89;107982;1288;21998;-61
2023/02/12 06:33:28;;;;;;;34.70;19.00;;;;;;;6.77;60.64;101191.58;107934;1289;21993;-69
2023/02/12 06:35:54;;;;;;;29.70;18.30;;;;;;;6.86;60.65;101194.66;108049;1283;21998;-60
2023/02/12 06:38:20;;;;;;;28.00;17.30;;;;;;;6.89;61.16;101199.95;108010;1281;21980;-60
2023/02/12 06:40:46;;;;;;;26.50;18.00;;;;;;;6.84;61.91;101205.45;107963;1288;22102;-69
2023/02/12 06:43:11;;;;;;;29.80;18.00;;;;;;;6.91;61.91;101205.03;107983;1288;21993;-60
2023/02/12 06:45:37;;;;;;;28.60;17.30;;;;;;;6.96;61.89;101211.58;107983;1288;21995;-60
2023/02/12 06:48:04;;;;;;;26.70;17.50;;;;;;;7.05;61.82;101217.99;108078;1289;21996;-69
2023/02/12 06:50:30;;;;;;;28.40;16.60;;;;;;;7.14;61.71;101218.84;108043;1289;21990;-63
2023/02/12 06:53:00;;;;;;;28.00;17.50;;;;;;;7.24;61.43;101219.52;107964;1288;22065;-69
2023/02/12 06:55:26;;;;;;;26.80;16.60;;;;;;;7.30;61.99;101217.68;108142;1276;21992;-60
2023/02/12 06:57:51;;;;;;;25.30;16.30;;;;;;;7.37;61.71;101221.61;108001;1284;22462;-69
2023/02/12 07:00:18;;;;;;;28.90;17.60;;;;;;;7.47;61.43;101226.48;108000;1289;21992;-68
2023/02/12 07:02:44;;;;;;;30.10;17.40;;;;;;;7.55;60.83;101231.84;108040;1289;21988;-69
2023/02/12 07:05:10;;;;;;;27.20;17.30;;;;;;;7.62;60.70;101234.36;107744;1288;22939;-68
2023/02/12 07:07:35;;;;;;;27.20;18.00;;;;;;;7.65;61.44;101234.06;107986;1289;21983;-69
2023/02/12 07:10:02;;;;;;;24.10;15.30;;;;;;;7.71;61.91;101235.71;107975;1287;21998;-69
2023/02/12 07:12:28;;;;;;;26.40;15.70;;;;;;;7.76;63.73;101235.44;108067;1289;21995;-61
2023/02/12 07:14:54;;;;;;;21.90;13.80;;;;;;;7.85;65.59;101240.44;107946;1287;21992;-62
2023/02/12 07:17:19;;;;;;;22.50;13.70;;;;;;;7.95;67.06;101244.93;107963;1288;22001;-68
2023/02/12 07:19:45;;;;;;;21.80;13.60;;;;;;;8.09;67.25;101247.20;107982;1289;21990;-68
2023/02/12 07:22:11;;;;;;;19.90;12.70;;;;;;;8.24;67.05;101245.60;108006;1276;21996;-67
2023/02/12 07:24:38;;;;;;;19.80;12.50;;;;;;;8.43;66.71;101247.41;107967;1289;21995;-67
2023/02/12 07:27:04;;;;;;;17.70;11.80;;;;;;;8.58;67.58;101249.34;108005;1289;22005;-68
2023/02/12 07:29:29;;;;;;;16.90;10.80;;;;;;;8.79;67.44;101253.90;107971;1289;22002;-62
2023/02/12 07:31:55;;;;;;;16.70;10.30;;;;;;;9.02;66.02;101256.90;107893;1285;21988;-68
2023/02/12 07:34:21;;;;;;;13.40;9.40;;;;;;;9.16;66.10;101261.21;108016;1288;22027;-68
2023/02/12 07:36:47;;;;;;;14.20;9.60;;;;;;;9.32;65.52;101264.31;108087;1289;21989;-60
2023/02/12 07:39:13;;;;;;;14.80;10.00;;;;;;;9.48;66.44;101272.30;108014;1288;21989;-67
2023/02/12 07:41:40;;;;;;;16.70;10.40;;;;;;;9.75;67.92;101272.29;107983;1288;22016;-62
2023/02/12 07:44:09;;;;;;;14.40;9.80;;;;;;;9.97;65.84;101270.81;107964;1288;21995;-62
2023/02/12 07:46:40;;;;;;;14.20;9.20;;;;;;;10.09;63.98;101271.39;107854;1288;22000;-68
2023/02/12 07:49:09;;;;;;;12.70;8.70;;;;;;;10.17;62.72;101276.50;107983;1287;21997;-63
2023/02/12 07:51:36;;;;;;;12.10;8.70;;;;;;;10.16;62.17;101280.01;108049;1288;23631;-63
2023/02/12 07:54:03;;;;;;;12.20;8.60;;;;;;;10.11;61.94;101276.84;107998;1289;22000;-62
2023/02/12 07:56:34;;;;;;;12.20;8.60;;;;;;;10.12;61.49;101279.48;108010;1288;21998;-62
2023/02/12 07:59:05;;;;;;;12.10;8.80;;;;;;;10.03;61.05;101283.11;108047;1288;21996;-62
2023/02/12 08:01:33;;;;;;;11.30;8.20;;;;;;;9.96;60.85;101287.45;107305;1288;1002280;-68
2023/02/12 08:04:08;;;;;;;13.30;7.90;;;;;;;9.88;60.67;101294.08;108055;1288;21999;-63
2023/02/12 08:06:38;;;;;;;11.00;7.70;;;;;;;9.82;60.47;101295.46;107879;1288;23719;-62
2023/02/12 08:09:07;;;;;;;9.20;6.60;;;;;;;9.76;60.26;101300.14;108062;1288;23790;-62
2023/02/12 08:11:33;;;;;;;18.30;10.20;;;;;;;9.66;59.82;101306.40;108176;1288;22054;-67
2023/02/12 08:14:00;;;;;;;17.20;10.20;;;;;;;9.61;59.63;101303.91;108115;1287;21995;-63
2023/02/12 08:16:26;;;;;;;11.80;8.40;;;;;;;9.61;60.04;101300.77;108010;1288;21994;-68
2023/02/12 08:18:52;;;;;;;9.90;6.90;;;;;;;9.67;60.32;101299.93;108000;1288;21994;-67
2023/02/12 08:21:23;;;;;;;8.80;6.00;;;;;;;9.80;60.10;101303.70;107978;1288;22029;-68
2023/02/12 08:23:49;;;;;;;;;;;;;;;9.94;59.70;101296.40;107945;1288;23072;-62
2023/02/12 08:26:22;;;;;;;7.20;4.70;;;;;;;9.99;58.38;101303.60;108102;1288;22074;-66
2023/02/12 08:28:50;;;;;;;7.00;4.50;;;;;;;10.09;57.65;101308.58;108041;1287;21994;-61
2023/02/12 08:31:20;;;;;;;7.20;3.70;;;;;;;10.15;57.32;101312.27;108031;1288;23068;-65
2023/02/12 08:33:46;;;;;;;5.30;3.90;;;;;;;10.13;56.50;101317.89;108021;1288;21999;-65
2023/02/12 08:36:14;;;;;;;5.90;3.60;;;;;;;10.09;55.77;101318.04;107980;1288;22161;-62
2023/02/12 08:38:40;;;;;;;7.40;4.20;;;;;;;10.10;55.90;101321.72;108063;1288;22311;-61
2023/02/12 08:41:08;;;;;;;6.10;4.30;;;;;;;10.11;56.17;101329.80;108031;1288;23624;-65
2023/02/12 08:43:35;;;;;;;5.90;4.20;;;;;;;10.12;55.84;101330.67;108015;1288;22002;-62
2023/02/12 08:46:05;;;;;;;6.20;3.90;;;;;;;10.10;55.86;101339.08;107952;1288;21992;-61
2023/02/12 08:48:31;;;;;;;6.80;4.60;;;;;;;10.10;55.80;101344.17;108088;1287;21995;-62
2023/02/12 08:51:13;;;;;;;6.60;5.00;;;;;;;10.07;55.78;101355.20;108040;1288;21993;-64
2023/02/12 08:53:39;;;;;;;7.20;4.50;;;;;;;10.07;55.70;101362.92;107997;1288;23071;-65
2023/02/12 08:56:10;;;;;;;9.10;4.40;;;;;;;10.07;55.61;101366.09;107836;1288;22161;-65
2023/02/12 08:58:36;;;;;;;6.30;4.50;;;;;;;10.03;55.06;101369.90;107989;1284;22028;-66
2023/02/12 09:01:03;;;;;;;7.20;4.40;;;;;;;9.98;54.98;101369.00;108000;1288;23738;-63
2023/02/12 09:03:30;;;;;;;6.80;3.70;;;;;;;9.91;55.00;101374.05;108005;1288;23050;-65
2023/02/12 09:05:55;;;;;;;5.70;3.80;;;;;;;9.88;55.02;101380.70;107981;1288;22256;-62
2023/02/12 09:08:21;;;;;;;5.90;3.60;;;;;;;9.90;55.01;101388.06;108144;1288;22029;-66
2023/02/12 09:10:52;;;;;;;5.00;3.10;;;;;;;9.92;54.84;101391.76;108038;1288;22223;-67
2023/02/12 09:13:18;;;;;;;5.10;3.30;;;;;;;9.97;54.67;101391.44;108009;1288;21990;-66
2023/02/12 09:15:44;;;;;;;5.50;2.90;;;;;;;10.02;54.22;101400.59;108016;1288;22002;-63
2023/02/12 09:18:14;;;;;;;4.10;2.80;;;;;;;10.04;53.85;101401.65;108028;1288;21989;-63
2023/02/12 09:20:41;;;;;;;4.20;2.70;;;;;;;10.04;53.56;101405.16;108010;1288;21990;-62
2023/02/12 09:23:09;;;;;;;4.90;3.10;;;;;;;10.02;53.12;101406.73;107833;1288;22000;-66
2023/02/12 09:25:38;;;;;;;4.30;2.60;;;;;;;9.98;52.72;101403.19;107329;1288;1002031;-62
2023/02/12 09:28:04;;;;;;;4.30;2.80;;;;;;;10.01;52.94;101406.89;108085;1287;21998;-62
2023/02/12 09:30:31;;;;;;;3.70;2.10;;;;;;;10.04;52.83;101413.04;107901;1288;21993;-63
2023/02/12 09:32:57;;;;;;;5.10;2.20;;;;;;;10.05;52.23;101422.18;108080;1289;21991;-63
2023/02/12 09:35:23;;;;;;;7.90;2.30;;;;;;;10.01;51.38;101422.14;108065;1288;22028;-63
2023/02/12 09:37:52;;;;;;;3.70;1.80;;;;;;;10.05;51.14;101422.88;108254;1288;22015;-63
2023/02/12 09:40:24;;;;;;;5.10;3.30;;;;;;;10.04;50.03;101429.00;107996;1288;22033;-67
2023/02/12 09:42:59;;;;;;;9.70;6.50;;;;;;;10.07;49.95;101433.23;107782;1289;22014;-66
2023/02/12 09:45:26;;;;;;;11.90;6.10;;;;;;;10.11;49.89;101435.02;108098;1288;22106;-61
2023/02/12 09:47:55;;;;;;;14.00;7.50;;;;;;;10.10;48.90;101436.42;107907;1288;21990;-61
2023/02/12 09:50:42;;;;;;;7.00;3.10;;;;;;;10.17;49.35;101439.79;108008;1289;21994;-62
2023/02/12 09:53:11;;;;;;;5.70;3.00;;;;;;;10.19;49.26;101436.64;108023;1289;23056;-65
2023/02/12 09:55:38;;;;;;;4.50;2.90;;;;;;;10.18;48.95;101436.63;108091;1288;21992;-65
2023/02/12 09:58:10;;;;;;;3.50;2.10;;;;;;;10.22;48.84;101433.34;107856;1289;22005;-67
2023/02/12 10:00:35;;;;;;;3.50;2.20;;;;;;;10.25;48.58;101427.73;108131;1287;21987;-64
2023/02/12 10:03:02;;;;;;;3.40;2.20;;;;;;;10.26;48.13;101429.66;108180;1288;22738;-62
2023/02/12 10:05:33;;;;;;;6.40;3.30;;;;;;;10.24;47.80;101432.29;108097;1288;22000;-66
2023/02/12 10:08:26;;;;;;;4.90;2.60;;;;;;;10.27;48.47;101435.47;108126;1289;23729;-62
2023/02/12 10:10:55;;;;;;;6.60;3.00;;;;;;;10.29;48.23;101441.80;108106;1288;22046;-61
2023/02/12 10:13:52;;;;;;;20.90;6.30;;;;;;;10.33;48.38;101443.75;108131;1288;22008;-66
2023/02/12 10:16:33;;;;;;;16.10;4.80;;;;;;;10.36;48.13;101442.89;107911;1276;21993;-63
2023/02/12 10:19:17;;;;;;;6.60;2.70;;;;;;;10.33;47.41;101446.55;108008;1289;22032;-66
2023/02/12 10:21:46;;;;;;;5.20;2.30;;;;;;;10.32;47.62;101448.83;107228;1289;1002225;-66
2023/02/12 10:24:30;;;;;;;3.20;1.80;;;;;;;10.52;47.72;101449.14;107318;1288;1002242;-62
2023/02/12 10:26:57;;;;;;;4.00;1.50;;;;;;;10.84;45.99;101450.50;108062;1288;22023;-65
2023/02/12 10:29:28;;;;;;;2.70;1.40;;;;;;;11.14;45.13;101448.14;108091;1288;24077;-62
2023/02/12 10:31:56;;;;;;;2.00;1.10;;;;;;;11.39;45.13;101448.90;108170;1276;21997;-67
2023/02/12 10:34:24;;;;;;;10.00;4.80;;;;;;;11.61;45.98;101456.13;107318;1289;1002819;-62
2023/02/12 10:36:54;;;;;;;5.00;2.80;;;;;;;11.69;45.56;101462.29;108025;1289;21992;-62
2023/02/12 10:39:22;;;;;;;3.10;2.00;;;;;;;11.63;45.29;101464.75;108075;1289;24014;-63
2023/02/12 10:41:54;;;;;;;2.90;1.60;;;;;;;11.56;45.40;101476.86;107842;1289;21995;-66
2023/02/12 10:44:21;;;;;;;3.70;1.70;;;;;;;11.42;45.45;101482.48;107318;1289;1002639;-63
2023/02/12 10:46:50;;;;;;;4.00;1.60;;;;;;;11.30;45.43;101485.26;107912;1289;21996;-66
2023/02/12 10:49:16;;;;;;;2.60;1.30;;;;;;;11.19;45.22;101488.21;108046;1288;21998;-63
2023/02/12 10:51:58;;;;;;;2.00;1.20;;;;;;;11.07;44.68;101493.96;108212;1278;21991;-67
2023/02/12 10:54:40;;;;;;;1.60;1.00;;;;;;;10.99;44.77;101497.80;107303;1289;1002480;-67
2023/02/12 10:57:21;;;;;;;3.50;1.40;;;;;;;10.91;44.18;101507.26;107955;1289;22001;-65
2023/02/12 10:59:49;;;;;;;2.00;1.10;;;;;;;10.84;44.57;101515.65;108233;1289;21995;-66
2023/02/12 11:02:26;;;;;;;2.40;1.00;;;;;;;10.81;44.53;101517.57;108054;1288;23060;-63
2023/02/12 11:04:53;;;;;;;1.90;1.10;;;;;;;10.74;44.60;101514.20;108031;1288;21972;-63
2023/02/12 11:07:19;;;;;;;2.80;1.20;;;;;;;10.73;44.71;101513.67;108022;1289;22117;-66
2023/02/12 11:09:47;;;;;;;4.10;1.20;;;;;;;10.65;44.03;101516.61;107966;1289;21988;-63
2023/02/12 11:12:28;;;;;;;2.70;1.20;;;;;;;10.53;44.40;101522.33;107330;1288;1002481;-67
2023/02/12 11:15:00;;;;;;;3.60;1.60;;;;;;;10.43;44.37;101527.00;108095;1289;22038;-67
2023/02/12 11:21:32;;;;;;;2.50;1.40;;;;;;;8.34;48.45;101547.52;107348;1289;548198;-62
2023/02/12 11:24:21;;;;;;;2.00;1.20;;;;;;;10.20;44.75;101548.38;107716;1293;21998;-62
2023/02/12 11:26:47;;;;;;;6.70;1.70;;;;;;;10.29;43.85;101553.02;106976;1291;1002958;-67
2023/02/12 11:29:24;;;;;;;4.10;1.90;;;;;;;10.41;43.75;101558.20;107634;1292;22018;-67